sensor_id;sensor_type;location;lat;lon;timestamp;temperature;humidity
47791;DHT22;33547;49.044;1.156;2023-07-02T00:00:27;16.30;99.90
47791;DHT22;33547;49.044;1.156;2023-07-02T00:02:53;16.20;99.90
47791;DHT22;33547;49.044;1.156;2023-07-02T00:05:18;16.20;99.90
47791;DHT22;33547;49.044;1.156;2023-07-02T00:07:44;16.20;99.90
47791;DHT22;33547;49.044;1.156;2023-07-02T00:10:10;16.20;99.90
47791;DHT22;33547;49.044;1.156;2023-07-02T00:12:36;16.20;99.90
47791;DHT22;33547;49.044;1.156;2023-07-02T00:15:02;16.10;99.90
47791;DHT22;33547;49.044;1.156;2023-07-02T00:17:28;16.00;99.90
47791;DHT22;33547;49.044;1.156;2023-07-02T00:19:54;16.00;99.90
47791;DHT22;33547;49.044;1.156;2023-07-02T00:22:20;16.00;99.90
47791;DHT22;33547;49.044;1.156;2023-07-02T00:24:46;16.00;99.90
47791;DHT22;33547;49.044;1.156;2023-07-02T00:27:11;16.00;99.90
47791;DHT22;33547;49.044;1.156;2023-07-02T00:29:37;16.00;99.90
47791;DHT22;33547;49.044;1.156;2023-07-02T00:32:03;15.90;99.90
47791;DHT22;33547;49.044;1.156;2023-07-02T00:34:29;15.90;99.90
47791;DHT22;33547;49.044;1.156;2023-07-02T00:36:55;15.90;99.90
47791;DHT22;33547;49.044;1.156;2023-07-02T00:39:20;15.90;99.90
47791;DHT22;33547;49.044;1.156;2023-07-02T00:41:46;15.90;99.90
47791;DHT22;33547;49.044;1.156;2023-07-02T00:44:15;15.90;99.90
47791;DHT22;33547;49.044;1.156;2023-07-02T00:46:40;15.90;99.90
47791;DHT22;33547;49.044;1.156;2023-07-02T00:49:08;15.80;99.90
47791;DHT22;33547;49.044;1.156;2023-07-02T00:51:34;15.90;99.90
47791;DHT22;33547;49.044;1.156;2023-07-02T00:54:00;15.80;99.90
47791;DHT22;33547;49.044;1.156;2023-07-02T00:56:26;15.90;99.90
47791;DHT22;33547;49.044;1.156;2023-07-02T00:58:54;15.80;99.90
47791;DHT22;33547;49.044;1.156;2023-07-02T01:01:24;15.80;99.90
47791;DHT22;33547;49.044;1.156;2023-07-02T01:04:03;15.90;99.90
47791;DHT22;33547;49.044;1.156;2023-07-02T01:06:30;15.80;99.90
47791;DHT22;33547;49.044;1.156;2023-07-02T01:08:58;15.80;99.90
47791;DHT22;33547;49.044;1.156;2023-07-02T01:11:27;15.80;99.90
47791;DHT22;33547;49.044;1.156;2023-07-02T01:13:57;15.80;99.90
47791;DHT22;33547;49.044;1.156;2023-07-02T01:16:24;15.90;99.90
47791;DHT22;33547;49.044;1.156;2023-07-02T01:18:51;15.80;99.90
47791;DHT22;33547;49.044;1.156;2023-07-02T01:21:21;15.80;99.90
47791;DHT22;33547;49.044;1.156;2023-07-02T01:23:47;15.80;99.90
47791;DHT22;33547;49.044;1.156;2023-07-02T01:26:13;15.80;99.90
47791;DHT22;33547;49.044;1.156;2023-07-02T01:28:39;15.80;99.90
47791;DHT22;33547;49.044;1.156;2023-07-02T01:31:05;15.80;99.90
47791;DHT22;33547;49.044;1.156;2023-07-02T01:33:31;15.90;99.90
47791;DHT22;33547;49.044;1.156;2023-07-02T01:35:56;15.90;99.90
47791;DHT22;33547;49.044;1.156;2023-07-02T01:38:22;16.00;99.90
47791;DHT22;33547;49.044;1.156;2023-07-02T01:40:48;16.00;99.90
47791;DHT22;33547;49.044;1.156;2023-07-02T01:43:13;16.00;99.90
47791;DHT22;33547;49.044;1.156;2023-07-02T01:45:41;16.10;99.90
47791;DHT22;33547;49.044;1.156;2023-07-02T01:48:07;16.10;99.90
47791;DHT22;33547;49.044;1.156;2023-07-02T01:50:33;16.10;99.90
47791;DHT22;33547;49.044;1.156;2023-07-02T01:52:59;16.20;99.90
47791;DHT22;33547;49.044;1.156;2023-07-02T01:55:24;16.20;99.90
47791;DHT22;33547;49.044;1.156;2023-07-02T01:57:50;16.20;99.90
47791;DHT22;33547;49.044;1.156;2023-07-02T02:00:16;16.30;99.90
47791;DHT22;33547;49.044;1.156;2023-07-02T02:02:43;16.30;99.90
47791;DHT22;33547;49.044;1.156;2023-07-02T02:05:09;16.30;99.90
47791;DHT22;33547;49.044;1.156;2023-07-02T02:07:36;16.40;99.90
47791;DHT22;33547;49.044;1.156;2023-07-02T02:10:05;16.50;99.90
47791;DHT22;33547;49.044;1.156;2023-07-02T02:12:31;16.50;99.90
47791;DHT22;33547;49.044;1.156;2023-07-02T02:14:57;16.50;99.90
47791;DHT22;33547;49.044;1.156;2023-07-02T02:17:22;16.50;99.90
47791;DHT22;33547;49.044;1.156;2023-07-02T02:19:49;16.40;99.90
47791;DHT22;33547;49.044;1.156;2023-07-02T02:22:15;16.50;99.90
47791;DHT22;33547;49.044;1.156;2023-07-02T02:24:41;16.50;99.90
47791;DHT22;33547;49.044;1.156;2023-07-02T02:27:07;16.40;99.90
47791;DHT22;33547;49.044;1.156;2023-07-02T02:29:32;16.50;99.90
47791;DHT22;33547;49.044;1.156;2023-07-02T02:31:58;16.50;99.90
47791;DHT22;33547;49.044;1.156;2023-07-02T02:34:24;16.40;99.90
47791;DHT22;33547;49.044;1.156;2023-07-02T02:36:49;16.40;99.90
47791;DHT22;33547;49.044;1.156;2023-07-02T02:39:15;16.40;99.90
47791;DHT22;33547;49.044;1.156;2023-07-02T02:41:41;16.40;99.90
47791;DHT22;33547;49.044;1.156;2023-07-02T02:44:06;16.50;99.90
47791;DHT22;33547;49.044;1.156;2023-07-02T02:46:32;16.40;99.90
47791;DHT22;33547;49.044;1.156;2023-07-02T02:48:58;16.30;99.90
47791;DHT22;33547;49.044;1.156;2023-07-02T02:51:24;16.40;99.90
47791;DHT22;33547;49.044;1.156;2023-07-02T02:53:49;16.50;99.90
47791;DHT22;33547;49.044;1.156;2023-07-02T02:56:15;16.40;99.90
47791;DHT22;33547;49.044;1.156;2023-07-02T02:58:40;16.50;99.90
47791;DHT22;33547;49.044;1.156;2023-07-02T03:01:06;16.40;99.90
47791;DHT22;33547;49.044;1.156;2023-07-02T03:03:40;16.40;99.90
47791;DHT22;33547;49.044;1.156;2023-07-02T03:06:12;16.50;99.90
47791;DHT22;33547;49.044;1.156;2023-07-02T03:08:39;16.50;99.90
47791;DHT22;33547;49.044;1.156;2023-07-02T03:11:04;16.50;99.90
47791;DHT22;33547;49.044;1.156;2023-07-02T03:13:30;16.50;99.90
47791;DHT22;33547;49.044;1.156;2023-07-02T03:15:56;16.40;99.90
47791;DHT22;33547;49.044;1.156;2023-07-02T03:18:21;16.30;99.90
47791;DHT22;33547;49.044;1.156;2023-07-02T03:20:47;16.20;99.90
47791;DHT22;33547;49.044;1.156;2023-07-02T03:23:12;16.20;99.90
47791;DHT22;33547;49.044;1.156;2023-07-02T03:25:38;16.20;99.90
47791;DHT22;33547;49.044;1.156;2023-07-02T03:28:04;16.00;99.90
47791;DHT22;33547;49.044;1.156;2023-07-02T03:30:29;16.00;99.90
47791;DHT22;33547;49.044;1.156;2023-07-02T03:32:55;15.80;99.90
47791;DHT22;33547;49.044;1.156;2023-07-02T03:35:20;15.80;99.90
47791;DHT22;33547;49.044;1.156;2023-07-02T03:37:46;15.80;99.90
47791;DHT22;33547;49.044;1.156;2023-07-02T03:40:11;15.80;99.90
47791;DHT22;33547;49.044;1.156;2023-07-02T03:42:37;15.70;99.90
47791;DHT22;33547;49.044;1.156;2023-07-02T03:45:03;15.60;99.90
47791;DHT22;33547;49.044;1.156;2023-07-02T03:47:29;15.60;99.90
47791;DHT22;33547;49.044;1.156;2023-07-02T03:49:54;15.50;99.90
47791;DHT22;33547;49.044;1.156;2023-07-02T03:52:20;15.40;99.90
47791;DHT22;33547;49.044;1.156;2023-07-02T03:54:45;15.50;99.90
47791;DHT22;33547;49.044;1.156;2023-07-02T03:57:11;15.30;99.90
47791;DHT22;33547;49.044;1.156;2023-07-02T03:59:37;15.20;99.90
47791;DHT22;33547;49.044;1.156;2023-07-02T04:02:02;15.30;99.90
47791;DHT22;33547;49.044;1.156;2023-07-02T04:04:28;15.40;99.90
47791;DHT22;33547;49.044;1.156;2023-07-02T04:06:54;15.40;99.90
47791;DHT22;33547;49.044;1.156;2023-07-02T04:09:19;15.40;99.90
47791;DHT22;33547;49.044;1.156;2023-07-02T04:11:45;15.40;99.90
47791;DHT22;33547;49.044;1.156;2023-07-02T04:14:10;15.40;99.90
47791;DHT22;33547;49.044;1.156;2023-07-02T04:16:36;15.30;99.90
47791;DHT22;33547;49.044;1.156;2023-07-02T04:19:02;15.40;99.90
47791;DHT22;33547;49.044;1.156;2023-07-02T04:21:27;15.30;99.90
47791;DHT22;33547;49.044;1.156;2023-07-02T04:23:53;15.30;99.90
47791;DHT22;33547;49.044;1.156;2023-07-02T04:26:18;15.40;99.90
47791;DHT22;33547;49.044;1.156;2023-07-02T04:28:45;15.40;99.90
47791;DHT22;33547;49.044;1.156;2023-07-02T04:31:10;15.50;99.90
47791;DHT22;33547;49.044;1.156;2023-07-02T04:33:36;15.50;99.90
47791;DHT22;33547;49.044;1.156;2023-07-02T04:36:03;15.60;99.90
47791;DHT22;33547;49.044;1.156;2023-07-02T04:38:29;15.60;99.90
47791;DHT22;33547;49.044;1.156;2023-07-02T04:40:54;15.60;99.90
47791;DHT22;33547;49.044;1.156;2023-07-02T04:43:27;15.60;99.90
47791;DHT22;33547;49.044;1.156;2023-07-02T04:45:55;15.70;99.90
47791;DHT22;33547;49.044;1.156;2023-07-02T04:48:21;15.70;99.90
47791;DHT22;33547;49.044;1.156;2023-07-02T04:50:46;15.70;99.90
47791;DHT22;33547;49.044;1.156;2023-07-02T04:53:12;15.60;99.90
47791;DHT22;33547;49.044;1.156;2023-07-02T04:55:38;15.60;99.90
47791;DHT22;33547;49.044;1.156;2023-07-02T04:58:03;15.70;99.90
47791;DHT22;33547;49.044;1.156;2023-07-02T05:00:29;15.80;99.90
47791;DHT22;33547;49.044;1.156;2023-07-02T05:02:55;15.90;99.90
47791;DHT22;33547;49.044;1.156;2023-07-02T05:05:20;16.00;99.90
47791;DHT22;33547;49.044;1.156;2023-07-02T05:07:46;16.10;99.90
47791;DHT22;33547;49.044;1.156;2023-07-02T05:10:12;16.10;99.90
47791;DHT22;33547;49.044;1.156;2023-07-02T05:12:37;16.10;99.90
47791;DHT22;33547;49.044;1.156;2023-07-02T05:15:03;16.10;99.90
47791;DHT22;33547;49.044;1.156;2023-07-02T05:17:29;16.30;99.90
47791;DHT22;33547;49.044;1.156;2023-07-02T05:19:54;16.30;99.90
47791;DHT22;33547;49.044;1.156;2023-07-02T05:22:20;16.40;99.90
47791;DHT22;33547;49.044;1.156;2023-07-02T05:24:46;16.50;99.90
47791;DHT22;33547;49.044;1.156;2023-07-02T05:27:12;16.50;99.90
47791;DHT22;33547;49.044;1.156;2023-07-02T05:29:38;16.60;99.90
47791;DHT22;33547;49.044;1.156;2023-07-02T05:32:04;16.70;99.90
47791;DHT22;33547;49.044;1.156;2023-07-02T05:34:30;16.50;99.90
47791;DHT22;33547;49.044;1.156;2023-07-02T05:36:55;16.60;99.90
47791;DHT22;33547;49.044;1.156;2023-07-02T05:39:21;16.60;99.90
47791;DHT22;33547;49.044;1.156;2023-07-02T05:41:47;16.70;99.90
47791;DHT22;33547;49.044;1.156;2023-07-02T05:44:13;17.20;99.90
47791;DHT22;33547;49.044;1.156;2023-07-02T05:46:39;17.50;99.90
47791;DHT22;33547;49.044;1.156;2023-07-02T05:49:05;17.90;99.90
47791;DHT22;33547;49.044;1.156;2023-07-02T05:51:31;18.00;99.90
47791;DHT22;33547;49.044;1.156;2023-07-02T05:53:57;17.90;99.90
47791;DHT22;33547;49.044;1.156;2023-07-02T05:56:23;17.90;99.90
47791;DHT22;33547;49.044;1.156;2023-07-02T05:58:49;17.70;99.90
47791;DHT22;33547;49.044;1.156;2023-07-02T06:01:15;17.80;99.90
47791;DHT22;33547;49.044;1.156;2023-07-02T06:03:42;17.80;99.90
47791;DHT22;33547;49.044;1.156;2023-07-02T06:06:09;17.70;99.90
47791;DHT22;33547;49.044;1.156;2023-07-02T06:08:34;18.30;99.90
47791;DHT22;33547;49.044;1.156;2023-07-02T06:11:00;18.70;99.90
47791;DHT22;33547;49.044;1.156;2023-07-02T06:13:25;18.50;99.90
47791;DHT22;33547;49.044;1.156;2023-07-02T06:15:51;18.30;99.90
47791;DHT22;33547;49.044;1.156;2023-07-02T06:18:17;18.50;99.90
47791;DHT22;33547;49.044;1.156;2023-07-02T06:20:43;18.40;99.90
47791;DHT22;33547;49.044;1.156;2023-07-02T06:23:09;18.40;99.90
47791;DHT22;33547;49.044;1.156;2023-07-02T06:25:34;18.50;99.90
47791;DHT22;33547;49.044;1.156;2023-07-02T06:28:00;18.60;99.90
47791;DHT22;33547;49.044;1.156;2023-07-02T06:30:26;18.50;99.90
47791;DHT22;33547;49.044;1.156;2023-07-02T06:32:51;18.50;99.90
47791;DHT22;33547;49.044;1.156;2023-07-02T06:35:17;18.60;99.90
47791;DHT22;33547;49.044;1.156;2023-07-02T06:37:43;19.30;99.90
47791;DHT22;33547;49.044;1.156;2023-07-02T06:40:09;19.20;99.90
47791;DHT22;33547;49.044;1.156;2023-07-02T06:42:35;19.20;99.90
47791;DHT22;33547;49.044;1.156;2023-07-02T06:45:02;19.50;99.90
47791;DHT22;33547;49.044;1.156;2023-07-02T06:47:27;19.90;99.90
47791;DHT22;33547;49.044;1.156;2023-07-02T06:49:53;19.80;99.90
47791;DHT22;33547;49.044;1.156;2023-07-02T06:52:19;19.60;99.90
47791;DHT22;33547;49.044;1.156;2023-07-02T06:54:45;19.40;99.90
47791;DHT22;33547;49.044;1.156;2023-07-02T06:57:10;19.30;99.90
47791;DHT22;33547;49.044;1.156;2023-07-02T06:59:36;19.20;99.90
47791;DHT22;33547;49.044;1.156;2023-07-02T07:02:02;19.40;99.90
47791;DHT22;33547;49.044;1.156;2023-07-02T07:04:28;19.20;99.90
47791;DHT22;33547;49.044;1.156;2023-07-02T07:06:54;19.40;99.90
47791;DHT22;33547;49.044;1.156;2023-07-02T07:09:21;19.50;99.90
47791;DHT22;33547;49.044;1.156;2023-07-02T07:11:47;19.60;99.90
47791;DHT22;33547;49.044;1.156;2023-07-02T07:14:12;19.40;99.90
47791;DHT22;33547;49.044;1.156;2023-07-02T07:16:38;19.80;99.90
47791;DHT22;33547;49.044;1.156;2023-07-02T07:19:04;20.10;99.90
47791;DHT22;33547;49.044;1.156;2023-07-02T07:21:30;20.40;99.90
47791;DHT22;33547;49.044;1.156;2023-07-02T07:23:55;20.70;99.90
47791;DHT22;33547;49.044;1.156;2023-07-02T07:26:21;20.80;99.90
47791;DHT22;33547;49.044;1.156;2023-07-02T07:28:47;20.60;99.90
47791;DHT22;33547;49.044;1.156;2023-07-02T07:31:12;20.70;99.90
47791;DHT22;33547;49.044;1.156;2023-07-02T07:33:38;20.70;99.90
47791;DHT22;33547;49.044;1.156;2023-07-02T07:36:04;21.00;99.90
47791;DHT22;33547;49.044;1.156;2023-07-02T07:38:29;21.10;99.90
47791;DHT22;33547;49.044;1.156;2023-07-02T07:40:55;21.60;99.90
47791;DHT22;33547;49.044;1.156;2023-07-02T07:43:21;21.90;99.90
47791;DHT22;33547;49.044;1.156;2023-07-02T07:45:46;22.20;99.90
47791;DHT22;33547;49.044;1.156;2023-07-02T07:48:12;22.20;99.90
47791;DHT22;33547;49.044;1.156;2023-07-02T07:50:38;22.10;99.90
47791;DHT22;33547;49.044;1.156;2023-07-02T07:53:03;22.30;99.90
47791;DHT22;33547;49.044;1.156;2023-07-02T07:55:29;21.70;99.90
47791;DHT22;33547;49.044;1.156;2023-07-02T07:57:54;21.90;99.90
47791;DHT22;33547;49.044;1.156;2023-07-02T08:00:20;22.10;99.90
47791;DHT22;33547;49.044;1.156;2023-07-02T08:02:46;21.80;99.90
47791;DHT22;33547;49.044;1.156;2023-07-02T08:05:12;21.80;99.90
47791;DHT22;33547;49.044;1.156;2023-07-02T08:07:39;22.00;99.90
47791;DHT22;33547;49.044;1.156;2023-07-02T08:10:06;22.20;99.90
47791;DHT22;33547;49.044;1.156;2023-07-02T08:12:33;22.10;99.90
47791;DHT22;33547;49.044;1.156;2023-07-02T08:14:59;22.60;99.90
47791;DHT22;33547;49.044;1.156;2023-07-02T08:17:25;22.70;99.30
47791;DHT22;33547;49.044;1.156;2023-07-02T08:19:50;22.40;99.00
47791;DHT22;33547;49.044;1.156;2023-07-02T08:22:16;22.80;99.40
47791;DHT22;33547;49.044;1.156;2023-07-02T08:24:41;23.40;97.90
47791;DHT22;33547;49.044;1.156;2023-07-02T08:27:07;23.60;97.40
47791;DHT22;33547;49.044;1.156;2023-07-02T08:29:33;23.20;97.00
47791;DHT22;33547;49.044;1.156;2023-07-02T08:31:59;23.60;96.80
47791;DHT22;33547;49.044;1.156;2023-07-02T08:34:25;25.00;95.30
47791;DHT22;33547;49.044;1.156;2023-07-02T08:36:50;24.70;94.90
47791;DHT22;33547;49.044;1.156;2023-07-02T08:39:17;23.50;94.00
47791;DHT22;33547;49.044;1.156;2023-07-02T08:41:47;22.80;95.30
47791;DHT22;33547;49.044;1.156;2023-07-02T08:44:17;24.80;94.80
47791;DHT22;33547;49.044;1.156;2023-07-02T08:46:44;26.70;92.30
47791;DHT22;33547;49.044;1.156;2023-07-02T08:49:10;27.60;90.30
47791;DHT22;33547;49.044;1.156;2023-07-02T08:51:36;25.70;90.70
47791;DHT22;33547;49.044;1.156;2023-07-02T08:54:02;24.70;91.40
47791;DHT22;33547;49.044;1.156;2023-07-02T08:56:29;24.20;92.30
47791;DHT22;33547;49.044;1.156;2023-07-02T08:58:55;23.60;93.00
47791;DHT22;33547;49.044;1.156;2023-07-02T09:01:21;23.10;94.30
47791;DHT22;33547;49.044;1.156;2023-07-02T09:03:46;22.90;94.40
47791;DHT22;33547;49.044;1.156;2023-07-02T09:06:12;23.30;94.00
47791;DHT22;33547;49.044;1.156;2023-07-02T09:08:38;23.00;94.60
47791;DHT22;33547;49.044;1.156;2023-07-02T09:13:47;22.60;94.10
47791;DHT22;33547;49.044;1.156;2023-07-02T09:16:25;24.10;92.50
47791;DHT22;33547;49.044;1.156;2023-07-02T09:19:05;23.20;93.20
47791;DHT22;33547;49.044;1.156;2023-07-02T09:21:45;22.70;94.40
47791;DHT22;33547;49.044;1.156;2023-07-02T09:24:14;22.10;95.00
47791;DHT22;33547;49.044;1.156;2023-07-02T09:26:51;21.80;95.70
47791;DHT22;33547;49.044;1.156;2023-07-02T09:29:24;21.60;95.50
47791;DHT22;33547;49.044;1.156;2023-07-02T09:31:50;21.90;95.20
47791;DHT22;33547;49.044;1.156;2023-07-02T09:34:16;23.00;93.60
47791;DHT22;33547;49.044;1.156;2023-07-02T09:36:43;24.60;92.40
47791;DHT22;33547;49.044;1.156;2023-07-02T09:39:13;26.30;90.90
47791;DHT22;33547;49.044;1.156;2023-07-02T09:41:42;25.90;89.90
47791;DHT22;33547;49.044;1.156;2023-07-02T09:44:09;25.20;90.30
47791;DHT22;33547;49.044;1.156;2023-07-02T09:46:42;24.30;91.20
47791;DHT22;33547;49.044;1.156;2023-07-02T09:49:13;25.90;90.40
47791;DHT22;33547;49.044;1.156;2023-07-02T09:51:40;25.90;88.10
47791;DHT22;33547;49.044;1.156;2023-07-02T09:54:06;25.10;89.00
47791;DHT22;33547;49.044;1.156;2023-07-02T09:56:32;24.50;90.90
47791;DHT22;33547;49.044;1.156;2023-07-02T09:58:58;23.80;92.00
47791;DHT22;33547;49.044;1.156;2023-07-02T10:01:23;23.60;92.00
47791;DHT22;33547;49.044;1.156;2023-07-02T10:03:49;23.20;92.40
47791;DHT22;33547;49.044;1.156;2023-07-02T10:06:15;23.00;92.20
47791;DHT22;33547;49.044;1.156;2023-07-02T10:08:40;24.10;91.80
47791;DHT22;33547;49.044;1.156;2023-07-02T10:11:17;23.90;91.40
47791;DHT22;33547;49.044;1.156;2023-07-02T10:13:42;23.60;91.30
47791;DHT22;33547;49.044;1.156;2023-07-02T10:16:08;23.10;92.00
47791;DHT22;33547;49.044;1.156;2023-07-02T10:18:34;23.30;92.20
47791;DHT22;33547;49.044;1.156;2023-07-02T10:20:59;23.00;91.90
47791;DHT22;33547;49.044;1.156;2023-07-02T10:23:34;23.40;92.20
47791;DHT22;33547;49.044;1.156;2023-07-02T10:26:10;23.20;92.30
47791;DHT22;33547;49.044;1.156;2023-07-02T10:28:35;23.00;92.20
47791;DHT22;33547;49.044;1.156;2023-07-02T10:31:01;22.80;92.50
47791;DHT22;33547;49.044;1.156;2023-07-02T10:33:27;22.60;92.20
47791;DHT22;33547;49.044;1.156;2023-07-02T10:35:52;22.40;92.40
47791;DHT22;33547;49.044;1.156;2023-07-02T10:38:20;22.60;93.00
47791;DHT22;33547;49.044;1.156;2023-07-02T10:40:46;22.40;92.70
47791;DHT22;33547;49.044;1.156;2023-07-02T10:43:12;22.30;92.80
47791;DHT22;33547;49.044;1.156;2023-07-02T10:45:38;22.70;92.70
47791;DHT22;33547;49.044;1.156;2023-07-02T10:48:09;23.40;92.00
47791;DHT22;33547;49.044;1.156;2023-07-02T10:50:35;23.10;92.40
47791;DHT22;33547;49.044;1.156;2023-07-02T10:53:01;22.90;92.10
47791;DHT22;33547;49.044;1.156;2023-07-02T10:55:28;22.60;92.00
47791;DHT22;33547;49.044;1.156;2023-07-02T10:58:08;22.60;92.00
47791;DHT22;33547;49.044;1.156;2023-07-02T11:00:44;22.90;91.50
47791;DHT22;33547;49.044;1.156;2023-07-02T11:03:24;23.20;90.60
47791;DHT22;33547;49.044;1.156;2023-07-02T11:05:51;23.30;90.10
47791;DHT22;33547;49.044;1.156;2023-07-02T11:08:17;25.20;88.20
47791;DHT22;33547;49.044;1.156;2023-07-02T11:10:44;26.40;85.90
47791;DHT22;33547;49.044;1.156;2023-07-02T11:13:17;25.40;85.10
47791;DHT22;33547;49.044;1.156;2023-07-02T11:15:44;24.50;85.40
47791;DHT22;33547;49.044;1.156;2023-07-02T11:18:17;25.70;85.70
47791;DHT22;33547;49.044;1.156;2023-07-02T11:20:44;27.10;83.00
47791;DHT22;33547;49.044;1.156;2023-07-02T11:23:24;27.50;82.00
47791;DHT22;33547;49.044;1.156;2023-07-02T11:25:59;28.20;83.20
47791;DHT22;33547;49.044;1.156;2023-07-02T11:28:26;27.00;81.60
47791;DHT22;33547;49.044;1.156;2023-07-02T11:30:52;27.20;79.70
47791;DHT22;33547;49.044;1.156;2023-07-02T11:33:18;27.70;78.00
47791;DHT22;33547;49.044;1.156;2023-07-02T11:35:43;27.80;79.20
47791;DHT22;33547;49.044;1.156;2023-07-02T11:38:09;28.80;78.60
47791;DHT22;33547;49.044;1.156;2023-07-02T11:40:38;28.80;75.70
47791;DHT22;33547;49.044;1.156;2023-07-02T11:43:04;27.70;74.70
47791;DHT22;33547;49.044;1.156;2023-07-02T11:45:31;26.30;76.50
47791;DHT22;33547;49.044;1.156;2023-07-02T11:47:57;26.20;78.10
47791;DHT22;33547;49.044;1.156;2023-07-02T11:50:22;26.20;78.30
47791;DHT22;33547;49.044;1.156;2023-07-02T11:52:48;26.10;78.80
47791;DHT22;33547;49.044;1.156;2023-07-02T11:55:14;25.70;78.70
47791;DHT22;33547;49.044;1.156;2023-07-02T11:57:39;25.80;79.10
47791;DHT22;33547;49.044;1.156;2023-07-02T12:00:05;26.40;78.60
47791;DHT22;33547;49.044;1.156;2023-07-02T12:02:31;26.70;78.00
47791;DHT22;33547;49.044;1.156;2023-07-02T12:04:57;25.90;78.60
47791;DHT22;33547;49.044;1.156;2023-07-02T12:07:22;26.50;79.30
47791;DHT22;33547;49.044;1.156;2023-07-02T12:09:48;26.10;76.10
47791;DHT22;33547;49.044;1.156;2023-07-02T12:12:14;26.90;78.10
47791;DHT22;33547;49.044;1.156;2023-07-02T12:14:41;27.10;77.00
47791;DHT22;33547;49.044;1.156;2023-07-02T12:17:09;27.50;75.50
47791;DHT22;33547;49.044;1.156;2023-07-02T12:19:40;27.00;77.10
47791;DHT22;33547;49.044;1.156;2023-07-02T12:22:07;26.10;76.30
47791;DHT22;33547;49.044;1.156;2023-07-02T12:24:32;26.60;77.10
47791;DHT22;33547;49.044;1.156;2023-07-02T12:26:58;26.90;76.50
47791;DHT22;33547;49.044;1.156;2023-07-02T12:29:24;26.50;74.80
47791;DHT22;33547;49.044;1.156;2023-07-02T12:31:49;27.00;75.50
47791;DHT22;33547;49.044;1.156;2023-07-02T12:34:15;26.70;76.00
47791;DHT22;33547;49.044;1.156;2023-07-02T12:36:41;26.60;76.80
47791;DHT22;33547;49.044;1.156;2023-07-02T12:39:06;26.70;77.60
47791;DHT22;33547;49.044;1.156;2023-07-02T12:41:33;25.90;76.90
47791;DHT22;33547;49.044;1.156;2023-07-02T12:43:59;25.80;78.30
47791;DHT22;33547;49.044;1.156;2023-07-02T12:46:24;26.30;76.10
47791;DHT22;33547;49.044;1.156;2023-07-02T12:48:50;26.60;75.60
47791;DHT22;33547;49.044;1.156;2023-07-02T12:51:16;26.60;76.50
47791;DHT22;33547;49.044;1.156;2023-07-02T12:53:41;26.40;75.90
47791;DHT22;33547;49.044;1.156;2023-07-02T12:56:07;26.50;76.10
47791;DHT22;33547;49.044;1.156;2023-07-02T12:58:32;26.80;76.20
47791;DHT22;33547;49.044;1.156;2023-07-02T13:00:58;26.30;75.60
47791;DHT22;33547;49.044;1.156;2023-07-02T13:03:24;25.80;76.30
47791;DHT22;33547;49.044;1.156;2023-07-02T13:05:50;25.90;77.30
47791;DHT22;33547;49.044;1.156;2023-07-02T13:08:16;26.40;76.60
47791;DHT22;33547;49.044;1.156;2023-07-02T13:10:42;26.30;74.70
47791;DHT22;33547;49.044;1.156;2023-07-02T13:13:07;26.30;75.40
47791;DHT22;33547;49.044;1.156;2023-07-02T13:15:33;26.30;76.00
47791;DHT22;33547;49.044;1.156;2023-07-02T13:18:00;26.50;75.60
47791;DHT22;33547;49.044;1.156;2023-07-02T13:20:26;26.60;75.50
47791;DHT22;33547;49.044;1.156;2023-07-02T13:22:51;26.20;76.80
47791;DHT22;33547;49.044;1.156;2023-07-02T13:25:17;25.60;76.30
47791;DHT22;33547;49.044;1.156;2023-07-02T13:27:43;25.50;76.60
47791;DHT22;33547;49.044;1.156;2023-07-02T13:30:08;25.60;76.80
47791;DHT22;33547;49.044;1.156;2023-07-02T13:32:34;25.70;77.00
47791;DHT22;33547;49.044;1.156;2023-07-02T13:35:00;25.70;77.90
47791;DHT22;33547;49.044;1.156;2023-07-02T13:37:25;26.00;76.90
47791;DHT22;33547;49.044;1.156;2023-07-02T13:39:51;25.90;78.00
47791;DHT22;33547;49.044;1.156;2023-07-02T13:42:17;25.70;75.40
47791;DHT22;33547;49.044;1.156;2023-07-02T13:44:43;25.90;76.10
47791;DHT22;33547;49.044;1.156;2023-07-02T13:47:08;26.00;75.50
47791;DHT22;33547;49.044;1.156;2023-07-02T13:49:34;26.00;77.20
47791;DHT22;33547;49.044;1.156;2023-07-02T13:52:00;25.60;76.40
47791;DHT22;33547;49.044;1.156;2023-07-02T13:54:26;25.60;76.70
47791;DHT22;33547;49.044;1.156;2023-07-02T13:56:52;25.40;78.30
47791;DHT22;33547;49.044;1.156;2023-07-02T13:59:19;25.70;78.60
47791;DHT22;33547;49.044;1.156;2023-07-02T14:01:45;25.90;77.00
47791;DHT22;33547;49.044;1.156;2023-07-02T14:04:12;25.50;76.40
47791;DHT22;33547;49.044;1.156;2023-07-02T14:06:37;25.30;77.70
47791;DHT22;33547;49.044;1.156;2023-07-02T14:09:04;25.40;77.80
47791;DHT22;33547;49.044;1.156;2023-07-02T14:11:31;25.20;78.60
47791;DHT22;33547;49.044;1.156;2023-07-02T14:13:57;25.20;79.30
47791;DHT22;33547;49.044;1.156;2023-07-02T14:16:22;25.00;78.40
47791;DHT22;33547;49.044;1.156;2023-07-02T14:18:51;25.20;77.20
47791;DHT22;33547;49.044;1.156;2023-07-02T14:21:17;25.20;78.00
47791;DHT22;33547;49.044;1.156;2023-07-02T14:23:43;25.00;79.10
47791;DHT22;33547;49.044;1.156;2023-07-02T14:26:09;25.40;79.90
47791;DHT22;33547;49.044;1.156;2023-07-02T14:28:35;25.50;78.90
47791;DHT22;33547;49.044;1.156;2023-07-02T14:31:05;25.60;78.30
47791;DHT22;33547;49.044;1.156;2023-07-02T14:33:32;25.20;78.30
47791;DHT22;33547;49.044;1.156;2023-07-02T14:35:59;25.10;78.90
47791;DHT22;33547;49.044;1.156;2023-07-02T14:38:26;25.30;79.60
47791;DHT22;33547;49.044;1.156;2023-07-02T14:40:53;25.50;79.70
47791;DHT22;33547;49.044;1.156;2023-07-02T14:43:19;25.20;79.40
47791;DHT22;33547;49.044;1.156;2023-07-02T14:45:50;24.90;79.20
47791;DHT22;33547;49.044;1.156;2023-07-02T14:48:17;24.60;80.10
47791;DHT22;33547;49.044;1.156;2023-07-02T14:50:51;24.60;81.30
47791;DHT22;33547;49.044;1.156;2023-07-02T14:53:17;24.70;80.30
47791;DHT22;33547;49.044;1.156;2023-07-02T14:55:43;24.70;81.10
47791;DHT22;33547;49.044;1.156;2023-07-02T14:58:10;24.70;80.10
47791;DHT22;33547;49.044;1.156;2023-07-02T15:00:46;25.00;80.60
47791;DHT22;33547;49.044;1.156;2023-07-02T15:03:12;24.60;81.10
47791;DHT22;33547;49.044;1.156;2023-07-02T15:05:39;24.80;81.10
47791;DHT22;33547;49.044;1.156;2023-07-02T15:08:06;25.00;81.70
47791;DHT22;33547;49.044;1.156;2023-07-02T15:10:31;24.90;80.80
47791;DHT22;33547;49.044;1.156;2023-07-02T15:12:57;24.90;81.70
47791;DHT22;33547;49.044;1.156;2023-07-02T15:15:23;24.90;82.10
47791;DHT22;33547;49.044;1.156;2023-07-02T15:17:48;24.70;82.00
47791;DHT22;33547;49.044;1.156;2023-07-02T15:20:14;24.60;82.60
47791;DHT22;33547;49.044;1.156;2023-07-02T15:22:40;24.80;81.40
47791;DHT22;33547;49.044;1.156;2023-07-02T15:25:06;25.00;80.60
47791;DHT22;33547;49.044;1.156;2023-07-02T15:27:31;24.90;82.30